Time;durP1;ratioP1;P1;durP2;ratioP2;P2;SDS_P1;SDS_P2;PMS_P1;PMS_P2;Temp;Humidity;BMP_temperature;BMP_pressure;BME280_temperature;BME280_humidity;BME280_pressure;Samples;Min_cycle;Max_cycle;Signal;HPM_P1;HPM_P2
2023/10/08 00:02:14;;;;;;;0.77;0.77;;;;;;;5.45;56.78;100961.88;5104777;28;20020;-61
2023/10/08 00:04:40;;;;;;;1.05;0.80;;;;;;;5.40;56.72;100949.75;5086536;28;20027;-61
2023/10/08 00:07:08;;;;;;;0.40;0.40;;;;;;;5.40;56.92;100963.47;5104661;28;20050;-61
2023/10/08 00:09:36;;;;;;;0.70;0.70;;;;;;;5.37;57.10;100960.84;5104674;28;20476;-62
2023/10/08 00:12:05;;;;;;;0.40;0.40;;;;;;;5.32;57.13;100965.00;5104922;28;20024;-61
2023/10/08 00:14:43;;;;;;;0.63;0.63;;;;;;;5.29;57.09;100963.25;5104863;28;20028;-61
2023/10/08 00:17:10;;;;;;;0.43;0.43;;;;;;;5.19;57.13;100964.72;5104824;28;20036;-61
2023/10/08 00:19:37;;;;;;;5.72;1.00;;;;;;;5.20;57.24;100968.19;5107931;28;20044;-61
2023/10/08 00:22:06;;;;;;;1.00;0.98;;;;;;;5.16;57.74;100976.69;5108258;28;20142;-61
2023/10/08 00:24:33;;;;;;;0.80;0.80;;;;;;;5.11;57.54;100974.00;5108666;28;20028;-61
2023/10/08 00:27:03;;;;;;;0.50;0.50;;;;;;;5.06;57.51;100979.03;5108419;28;20464;-62
2023/10/08 00:29:31;;;;;;;1.05;0.98;;;;;;;4.99;57.78;100971.13;5108093;28;20571;-62
2023/10/08 00:31:56;;;;;;;1.00;0.90;;;;;;;4.92;57.79;100970.97;5108141;28;20088;-62
2023/10/08 00:34:24;;;;;;;0.63;0.63;;;;;;;4.83;57.89;100968.19;5108414;28;20119;-62
2023/10/08 00:36:50;;;;;;;1.08;0.93;;;;;;;4.77;58.08;100966.34;5108161;28;20055;-61
2023/10/08 00:39:22;;;;;;;0.75;0.75;;;;;;;4.68;58.09;100968.69;5108133;28;20031;-61
2023/10/08 00:41:49;;;;;;;0.68;0.68;;;;;;;4.65;58.19;100991.75;5107984;28;20052;-61
2023/10/08 00:44:30;;;;;;;0.50;0.50;;;;;;;4.59;58.28;100988.19;5107999;28;20103;-61
2023/10/08 00:46:56;;;;;;;0.82;0.80;;;;;;;4.51;58.44;100994.84;5107683;28;20020;-61
2023/10/08 00:49:24;;;;;;;2.30;0.90;;;;;;;4.43;58.48;100986.03;5107471;28;20016;-62
2023/10/08 00:52:25;;;;;;;1.48;1.00;;;;;;;4.43;58.64;100994.63;5090094;28;20027;-61
2023/10/08 00:57:28;;;;;;;0.70;0.70;;;;;;;4.33;58.77;101010.63;5107935;28;20087;-62
2023/10/08 00:59:54;;;;;;;0.57;0.50;;;;;;;4.29;58.97;101008.81;5107888;28;20051;-61
2023/10/08 01:02:24;;;;;;;0.88;0.88;;;;;;;4.26;59.04;101014.75;5107548;28;20020;-62
2023/10/08 01:04:54;;;;;;;2.95;0.85;;;;;;;4.24;58.97;101015.53;5107715;28;20039;-61
2023/10/08 01:07:21;;;;;;;1.20;1.08;;;;;;;4.26;59.04;101022.47;5107643;28;20031;-62
2023/10/08 01:09:59;;;;;;;1.10;0.60;;;;;;;4.27;59.07;101026.78;5107624;28;20030;-64
2023/10/08 01:12:29;;;;;;;0.63;0.63;;;;;;;4.20;58.94;101019.72;5107446;28;20028;-62
2023/10/08 01:14:55;;;;;;;0.40;0.40;;;;;;;4.24;58.96;101036.09;5107239;28;20024;-62
2023/10/08 01:17:25;;;;;;;1.13;0.77;;;;;;;4.25;58.98;101037.84;5107229;28;20109;-60
2023/10/08 01:19:55;;;;;;;0.52;0.52;;;;;;;4.18;58.98;101027.41;5107225;28;20091;-61
2023/10/08 01:22:22;;;;;;;0.80;0.77;;;;;;;4.19;59.00;101049.69;5107382;28;20085;-61
2023/10/08 01:24:48;;;;;;;0.40;0.40;;;;;;;4.15;59.00;101057.28;5107175;28;20028;-61
2023/10/08 01:27:21;;;;;;;0.50;0.50;;;;;;;4.05;58.98;101043.28;5107091;28;20365;-61
2023/10/08 01:29:47;;;;;;;0.65;0.65;;;;;;;4.03;59.05;101048.38;5087877;28;20020;-62
2023/10/08 01:32:16;;;;;;;1.00;0.85;;;;;;;3.96;59.09;101049.88;5106815;28;20357;-61
2023/10/08 01:34:45;;;;;;;0.70;0.70;;;;;;;3.84;59.17;101036.69;5088756;28;20028;-61
2023/10/08 01:37:14;;;;;;;0.52;0.52;;;;;;;3.78;59.07;101044.22;5106851;28;20069;-61
2023/10/08 01:39:42;;;;;;;0.40;0.40;;;;;;;3.81;59.18;101067.44;5106929;28;20020;-62
2023/10/08 01:42:16;;;;;;;0.55;0.55;;;;;;;3.75;59.16;101062.09;5107069;28;20032;-60
2023/10/08 01:44:45;;;;;;;0.60;0.60;;;;;;;3.68;59.29;101056.78;5106993;28;20079;-61
2023/10/08 01:47:11;;;;;;;0.50;0.50;;;;;;;3.65;59.27;101054.13;5106665;28;20024;-61
2023/10/08 01:49:38;;;;;;;0.50;0.50;;;;;;;3.59;59.32;101070.19;5106562;28;20019;-62
2023/10/08 01:52:07;;;;;;;0.82;0.82;;;;;;;3.59;59.50;101077.03;5106808;28;20024;-62
2023/10/08 01:54:35;;;;;;;0.50;0.50;;;;;;;3.61;59.26;101082.22;5106944;28;20084;-62
2023/10/08 01:57:01;;;;;;;0.98;0.80;;;;;;;3.60;59.30;101081.34;5106514;28;20031;-61
2023/10/08 01:59:26;;;;;;;0.55;0.55;;;;;;;3.54;59.00;101084.59;5106553;28;20016;-60
2023/10/08 02:01:55;;;;;;;0.70;0.70;;;;;;;3.59;59.33;101077.91;5106534;28;20093;-61
2023/10/08 02:04:21;;;;;;;0.40;0.40;;;;;;;3.56;59.13;101077.81;5106562;28;20031;-60
2023/10/08 02:06:47;;;;;;;0.40;0.40;;;;;;;3.49;58.71;101060.47;5106521;28;20138;-61
2023/10/08 02:09:13;;;;;;;0.50;0.50;;;;;;;3.65;58.66;101095.22;5106090;28;20437;-60
2023/10/08 02:11:43;;;;;;;0.85;0.85;;;;;;;3.64;58.50;101096.06;5088054;28;20476;-62
2023/10/08 02:14:08;;;;;;;0.50;0.50;;;;;;;3.64;57.91;101098.63;5106468;28;20052;-61
2023/10/08 02:16:34;;;;;;;1.63;1.10;;;;;;;3.68;58.56;101102.13;5105837;28;20024;-61
2023/10/08 02:18:59;;;;;;;0.55;0.55;;;;;;;3.66;58.61;101107.22;5105983;28;20024;-61
2023/10/08 02:21:25;;;;;;;0.40;0.40;;;;;;;3.64;58.47;101110.56;5106450;28;20028;-61
2023/10/08 02:23:52;;;;;;;0.40;0.40;;;;;;;3.59;58.71;101113.84;5105955;28;20036;-62
2023/10/08 02:26:19;;;;;;;5.43;0.50;;;;;;;3.55;58.87;101111.13;5087640;28;20050;-61
2023/10/08 02:28:44;;;;;;;1.75;0.73;;;;;;;3.52;59.14;101124.75;5105943;28;20020;-62
2023/10/08 02:31:10;;;;;;;0.47;0.47;;;;;;;3.47;58.49;101124.63;5105432;28;20028;-61
2023/10/08 02:33:35;;;;;;;1.60;0.82;;;;;;;3.49;58.73;101119.53;5106121;28;20028;-61
2023/10/08 02:36:04;;;;;;;0.40;0.40;;;;;;;3.50;58.76;101120.41;5105729;28;20020;-61
2023/10/08 02:38:29;;;;;;;0.40;0.40;;;;;;;3.52;58.69;101121.31;5105760;28;20024;-61
2023/10/08 02:40:56;;;;;;;0.50;0.50;;;;;;;3.54;58.68;101127.38;5105225;28;20557;-61
2023/10/08 02:43:23;;;;;;;0.63;0.60;;;;;;;3.52;58.68;101136.72;5105526;28;20027;-61
2023/10/08 02:45:49;;;;;;;0.40;0.40;;;;;;;3.48;58.75;101138.34;5105517;28;20077;-61
2023/10/08 02:48:15;;;;;;;0.60;0.60;;;;;;;3.52;58.72;101146.97;5105584;28;20012;-61
2023/10/08 02:50:41;;;;;;;0.55;0.50;;;;;;;3.47;58.74;101149.41;5105562;28;20044;-61
2023/10/08 02:53:17;;;;;;;3.70;0.47;;;;;;;3.44;58.81;101152.75;5105669;28;20028;-61
2023/10/08 02:55:46;;;;;;;0.60;0.60;;;;;;;3.38;58.88;101157.69;5105647;28;20016;-61
2023/10/08 02:58:15;;;;;;;0.75;0.68;;;;;;;3.30;58.93;101153.97;5105553;28;20024;-62
2023/10/08 03:00:46;;;;;;;2.35;1.38;;;;;;;3.26;59.06;101164.97;5105426;28;20061;-62
2023/10/08 03:03:15;;;;;;;0.93;0.60;;;;;;;3.16;59.14;101156.97;5105534;28;20054;-61
2023/10/08 03:05:52;;;;;;;0.52;0.52;;;;;;;3.19;59.26;101172.47;5105464;28;20086;-61
2023/10/08 03:08:21;;;;;;;0.57;0.57;;;;;;;3.17;59.52;101176.66;5105460;28;20042;-61
2023/10/08 03:10:55;;;;;;;0.50;0.50;;;;;;;3.15;59.33;101182.53;5105337;28;20016;-61
2023/10/08 03:13:21;;;;;;;0.50;0.50;;;;;;;3.08;59.25;101189.19;5105460;28;20472;-62
2023/10/08 03:18:35;;;;;;;1.20;0.50;;;;;;;3.04;59.40;101184.75;5105214;28;20021;-61
2023/10/08 03:21:05;;;;;;;0.40;0.40;;;;;;;3.00;59.44;101188.03;5105472;28;20099;-61
2023/10/08 03:23:34;;;;;;;0.70;0.70;;;;;;;2.97;59.36;101192.22;5086856;28;20024;-61
2023/10/08 03:26:09;;;;;;;0.40;0.40;;;;;;;2.95;59.47;101196.44;5105506;28;20032;-61
2023/10/08 03:28:34;;;;;;;0.47;0.47;;;;;;;2.94;59.57;101197.25;5105229;28;20020;-61
2023/10/08 03:31:16;;;;;;;1.27;0.95;;;;;;;2.94;59.68;101199.81;5086960;28;20022;-61
2023/10/08 03:33:43;;;;;;;0.40;0.40;;;;;;;2.93;59.66;101200.63;5105201;28;20027;-61
2023/10/08 03:36:13;;;;;;;0.50;0.50;;;;;;;2.89;59.57;101197.91;5105152;28;20042;-61
2023/10/08 03:38:45;;;;;;;0.50;0.50;;;;;;;2.87;59.69;101199.53;5105068;28;20069;-61
2023/10/08 03:41:16;;;;;;;0.50;0.50;;;;;;;2.82;59.53;101192.56;5105154;28;20051;-61
2023/10/08 03:46:30;;;;;;;0.40;0.40;;;;;;;2.77;59.65;101208.56;5105014;28;20035;-60
2023/10/08 03:48:57;;;;;;;1.05;1.05;;;;;;;2.66;59.77;101186.00;5104965;28;20039;-61
2023/10/08 03:51:27;;;;;;;0.43;0.43;;;;;;;2.73;59.83;101205.91;5104871;28;20049;-61
2023/10/08 03:53:59;;;;;;;5.85;1.00;;;;;;;2.71;59.84;101210.13;5107269;28;20020;-60
2023/10/08 03:56:29;;;;;;;0.47;0.47;;;;;;;2.70;59.86;101210.91;5109139;28;20077;-62
2023/10/08 03:58:54;;;;;;;0.60;0.60;;;;;;;2.69;59.94;101208.28;5109280;28;20138;-62
2023/10/08 04:01:22;;;;;;;0.82;0.82;;;;;;;2.67;60.00;101215.94;5108844;28;20084;-61
2023/10/08 04:06:28;;;;;;;2.25;1.45;;;;;;;2.63;60.06;101214.09;5109168;28;20032;-61
2023/10/08 04:14:24;;;;;;;0.63;0.63;;;;;;;2.56;60.20;101217.22;5108999;28;20024;-62
2023/10/08 04:16:53;;;;;;;0.50;0.50;;;;;;;2.51;60.54;101221.31;5107978;28;20052;-61
2023/10/08 04:19:20;;;;;;;0.68;0.63;;;;;;;2.56;60.50;101222.34;5108519;28;20110;-61
2023/10/08 04:21:53;;;;;;;0.45;0.45;;;;;;;2.53;60.73;101225.69;5108555;28;20162;-61
2023/10/08 04:24:20;;;;;;;0.40;0.40;;;;;;;2.58;60.42;101233.53;5108604;28;20026;-61
2023/10/08 04:26:46;;;;;;;0.45;0.45;;;;;;;2.55;60.39;101226.63;5108400;28;20024;-61
2023/10/08 04:29:16;;;;;;;0.43;0.43;;;;;;;2.53;60.51;101222.22;5108495;28;20031;-61
2023/10/08 04:31:46;;;;;;;0.60;0.60;;;;;;;2.52;60.52;101220.50;5108217;28;20024;-61
2023/10/08 04:34:22;;;;;;;0.40;0.40;;;;;;;2.50;60.46;101229.81;5108385;28;20031;-62
2023/10/08 04:36:54;;;;;;;0.50;0.50;;;;;;;2.50;60.57;101234.94;5108254;28;20051;-61
2023/10/08 04:39:31;;;;;;;0.60;0.60;;;;;;;2.50;60.63;101242.63;5108361;28;20444;-62
2023/10/08 04:42:00;;;;;;;1.95;0.73;;;;;;;2.48;60.68;101243.44;5108112;28;20051;-63
2023/10/08 04:44:25;;;;;;;0.40;0.40;;;;;;;2.47;60.64;101253.66;5108250;28;20016;-62
2023/10/08 04:46:52;;;;;;;0.50;0.50;;;;;;;2.46;60.71;101269.84;5108024;28;20028;-60
2023/10/08 04:49:28;;;;;;;0.50;0.50;;;;;;;2.47;60.83;101276.72;5107897;28;20024;-61
2023/10/08 04:52:13;;;;;;;0.50;0.50;;;;;;;2.49;60.92;101280.22;5108113;28;20028;-62
2023/10/08 04:54:40;;;;;;;0.40;0.40;;;;;;;2.50;60.77;101278.50;5107927;28;20020;-61
2023/10/08 04:57:07;;;;;;;0.77;0.60;;;;;;;2.50;60.94;101283.63;5107977;28;20020;-61
2023/10/08 04:59:33;;;;;;;0.40;0.40;;;;;;;2.50;60.71;101288.75;5107872;28;20020;-61
2023/10/08 05:15:21;;;;;;;1.05;0.57;;;;;;;2.60;61.14;101296.00;5107637;28;20089;-60
2023/10/08 05:25:58;;;;;;;3.08;1.35;;;;;;;2.76;61.57;101327.38;5107398;28;20031;-61
2023/10/08 05:28:24;;;;;;;0.50;0.50;;;;;;;2.79;61.44;101318.13;5107212;28;20055;-60
2023/10/08 05:30:55;;;;;;;0.55;0.55;;;;;;;2.94;61.59;101317.81;5106905;28;20052;-60
2023/10/08 05:33:49;;;;;;;0.40;0.40;;;;;;;3.06;61.28;101319.97;5107297;28;20031;-60
2023/10/08 05:36:18;;;;;;;0.70;0.70;;;;;;;3.18;61.31;101331.53;5107066;28;20032;-61
2023/10/08 05:39:00;;;;;;;0.80;0.80;;;;;;;3.25;61.27;101333.47;5107136;28;20050;-61
2023/10/08 05:41:30;;;;;;;1.05;0.85;;;;;;;3.30;61.32;101337.09;5106581;28;20067;-61
2023/10/08 05:44:14;;;;;;;0.50;0.50;;;;;;;3.32;61.43;101334.59;5107056;28;20028;-60
2023/10/08 05:46:46;;;;;;;0.40;0.40;;;;;;;3.44;61.45;101342.72;5106875;28;20028;-61
2023/10/08 06:05:23;;;;;;;0.70;0.70;;;;;;;3.58;61.44;101361.19;5106841;28;20038;-61
2023/10/08 06:13:09;;;;;;;0.50;0.50;;;;;;;3.72;61.62;101351.41;5106393;28;20088;-60
2023/10/08 06:18:28;;;;;;;2.40;1.48;;;;;;;4.29;62.11;101361.00;5106439;28;20400;-62
2023/10/08 06:20:54;;;;;;;;;;;;;;;4.93;63.01;101363.88;5106774;28;20016;-61
2023/10/08 06:23:22;;;;;;;10.73;0.73;;;;;;;5.66;62.83;101364.19;5106212;28;19915;-61
2023/10/08 06:26:36;;;;;;;0.50;0.50;;;;;;;6.47;62.89;101368.00;5106051;28;20024;-61
2023/10/08 06:28:35;;;;;;;0.40;0.40;;;;;;;7.37;62.19;101357.06;5094946;28;20036;-60
2023/10/08 06:31:06;;;;;;;0.50;0.50;;;;;;;8.09;61.07;101371.31;5105669;28;20032;-62
2023/10/08 06:33:33;;;;;;;0.73;0.60;;;;;;;8.82;60.26;101378.53;5106108;28;20089;-62
2023/10/08 06:36:02;;;;;;;0.47;0.47;;;;;;;9.54;61.09;101378.59;5105858;28;20043;-61
2023/10/08 06:38:34;;;;;;;0.40;0.40;;;;;;;10.23;60.54;101381.88;5105936;28;20024;-62
2023/10/08 06:41:08;;;;;;;0.85;0.73;;;;;;;10.91;60.65;101378.94;5105718;28;20040;-61
2023/10/08 06:43:37;;;;;;;0.63;0.60;;;;;;;11.56;58.23;101374.91;5105859;28;20032;-62
2023/10/08 06:46:12;;;;;;;0.73;0.57;;;;;;;12.10;58.60;101379.38;5105352;28;20024;-60
2023/10/08 06:48:41;;;;;;;0.40;0.40;;;;;;;12.64;56.05;101378.47;5105693;28;20012;-62
2023/10/08 06:51:12;;;;;;;1.75;1.02;;;;;;;13.27;57.26;101383.53;5105511;28;20123;-62
2023/10/08 06:53:38;;;;;;;0.60;0.60;;;;;;;13.78;56.87;101385.03;5105550;28;20054;-62
2023/10/08 06:56:04;;;;;;;0.40;0.40;;;;;;;14.28;57.75;101383.84;5105637;28;20028;-62
2023/10/08 06:58:32;;;;;;;0.40;0.40;;;;;;;14.70;57.21;101380.81;5105600;28;20061;-62
2023/10/08 07:00:58;;;;;;;0.40;0.40;;;;;;;14.98;55.96;101381.41;5105303;28;20030;-61
2023/10/08 07:03:24;;;;;;;1.00;0.60;;;;;;;15.32;56.01;101382.78;5105819;28;20024;-62
2023/10/08 07:06:03;;;;;;;0.68;0.40;;;;;;;15.29;54.02;101384.59;5105705;28;20020;-61
2023/10/08 07:08:32;;;;;;;0.20;0.20;;;;;;;15.45;51.18;101386.09;5105533;28;20024;-62
2023/10/08 07:11:01;;;;;;;2.80;0.57;;;;;;;15.71;54.71;101391.88;5105394;28;20028;-61
2023/10/08 07:13:29;;;;;;;0.73;0.50;;;;;;;15.80;53.49;101389.13;5105387;28;20027;-62
2023/10/08 07:15:55;;;;;;;0.52;0.50;;;;;;;15.89;50.07;101390.75;5105104;28;20296;-61
2023/10/08 07:18:24;;;;;;;1.20;0.60;;;;;;;16.00;52.77;101393.22;5105462;28;20431;-61
2023/10/08 07:21:00;;;;;;;0.25;0.25;;;;;;;16.07;51.30;101404.47;5105450;28;20056;-62
2023/10/08 07:23:33;;;;;;;0.50;0.45;;;;;;;16.26;52.26;101402.44;5105086;28;20020;-62
2023/10/08 07:26:13;;;;;;;0.70;0.50;;;;;;;16.32;52.18;101415.44;5105143;28;20027;-62
2023/10/08 07:28:41;;;;;;;0.32;0.30;;;;;;;16.34;51.07;101415.41;5104071;28;20442;-62
2023/10/08 07:31:17;;;;;;;1.73;0.60;;;;;;;16.26;45.99;101410.31;5104961;28;20485;-62
2023/10/08 07:33:43;;;;;;;0.40;0.40;;;;;;;15.79;45.53;101410.97;5105340;28;20059;-62
2023/10/08 07:36:14;;;;;;;0.70;0.43;;;;;;;15.16;45.52;101416.09;5087231;28;20016;-62
2023/10/08 07:38:42;;;;;;;1.30;0.60;;;;;;;15.04;45.99;101424.09;5105130;28;20012;-62
2023/10/08 07:41:14;;;;;;;0.30;0.30;;;;;;;15.22;45.33;101425.63;5104842;28;20047;-61
2023/10/08 07:43:46;;;;;;;0.43;0.40;;;;;;;15.44;46.33;101430.59;5105246;28;20016;-61
2023/10/08 07:46:13;;;;;;;5.63;0.57;;;;;;;15.36;46.26;101431.59;5104729;28;20024;-62
2023/10/08 07:48:44;;;;;;;0.20;0.20;;;;;;;15.27;43.45;101422.97;5105077;28;20022;-61
2023/10/08 07:51:10;;;;;;;0.40;0.40;;;;;;;15.13;44.02;101430.97;5104904;28;20021;-61
2023/10/08 07:53:38;;;;;;;0.40;0.40;;;;;;;14.79;41.55;101440.00;5105102;28;20115;-61
2023/10/08 07:56:06;;;;;;;0.30;0.30;;;;;;;14.65;41.93;101440.13;5086529;28;20024;-62
2023/10/08 07:58:33;;;;;;;0.38;0.38;;;;;;;14.68;41.21;101440.09;5104822;28;20430;-61
2023/10/08 08:01:06;;;;;;;0.47;0.47;;;;;;;14.16;39.51;101431.78;5104735;28;20020;-61
2023/10/08 08:03:40;;;;;;;0.52;0.52;;;;;;;13.89;39.66;101429.34;5086513;28;20501;-62
2023/10/08 08:06:07;;;;;;;0.77;0.70;;;;;;;14.06;40.57;101451.84;5104808;28;20020;-63
2023/10/08 08:08:33;;;;;;;0.40;0.40;;;;;;;14.54;39.50;101448.91;5104757;28;20092;-63
2023/10/08 08:11:03;;;;;;;0.30;0.30;;;;;;;15.27;39.36;101444.75;5104699;28;20031;-62
2023/10/08 08:13:29;;;;;;;0.95;0.50;;;;;;;16.09;39.11;101453.31;5104750;28;20028;-62
2023/10/08 08:15:58;;;;;;;0.60;0.55;;;;;;;16.08;37.76;101458.59;5104502;28;20075;-62
2023/10/08 08:18:25;;;;;;;0.43;0.43;;;;;;;15.82;38.40;101460.66;5104682;28;20050;-62
2023/10/08 08:20:50;;;;;;;0.30;0.30;;;;;;;16.19;37.61;101458.44;5104670;28;20035;-62
2023/10/08 08:23:16;;;;;;;1.40;0.50;;;;;;;16.55;38.08;101466.59;5086575;28;20020;-62
2023/10/08 08:28:28;;;;;;;0.50;0.40;;;;;;;17.59;37.45;101469.09;5104791;28;20031;-62
2023/10/08 08:30:55;;;;;;;0.45;0.38;;;;;;;17.94;37.75;101468.34;5104346;28;20024;-63
2023/10/08 08:33:24;;;;;;;1.55;0.47;;;;;;;18.23;37.38;101479.97;5086306;28;20031;-62
2023/10/08 08:36:05;;;;;;;0.63;0.38;;;;;;;18.16;36.08;101489.75;5086912;28;20631;-63
2023/10/08 08:38:32;;;;;;;0.30;0.30;;;;;;;17.95;37.63;101489.34;5104575;28;20044;-62
2023/10/08 08:41:07;;;;;;;0.65;0.38;;;;;;;18.03;37.75;101491.81;5107787;28;20040;-62
2023/10/08 08:43:36;;;;;;;0.38;0.38;;;;;;;18.15;37.67;101498.56;5108212;28;20069;-64
2023/10/08 08:46:05;;;;;;;1.25;0.50;;;;;;;18.38;36.43;101507.69;5107640;28;20024;-61
2023/10/08 08:48:33;;;;;;;0.68;0.52;;;;;;;18.50;37.11;101493.38;5108144;28;20027;-64
2023/10/08 08:51:00;;;;;;;0.40;0.30;;;;;;;18.72;34.85;101498.09;5107742;28;20028;-62
2023/10/08 08:53:26;;;;;;;0.30;0.30;;;;;;;18.47;36.67;101509.22;5107853;28;20016;-63
2023/10/08 08:55:54;;;;;;;2.22;0.75;;;;;;;18.63;36.34;101491.28;5107882;28;20020;-62
2023/10/08 08:58:21;;;;;;;0.38;0.30;;;;;;;18.81;35.25;101508.38;5107511;28;20039;-62
2023/10/08 09:00:50;;;;;;;0.20;0.20;;;;;;;18.91;34.46;101506.38;5107735;28;20020;-62
2023/10/08 09:03:16;;;;;;;0.28;0.20;;;;;;;19.23;36.26;101509.09;5107339;28;20019;-63
2023/10/08 09:05:49;;;;;;;7.13;0.75;;;;;;;19.62;34.46;101499.22;5107718;28;20052;-62
2023/10/08 09:08:18;;;;;;;0.57;0.40;;;;;;;20.09;34.48;101500.53;5107510;28;20051;-62
2023/10/08 09:10:52;;;;;;;0.20;0.20;;;;;;;19.74;32.56;101503.28;5107450;28;20027;-63
2023/10/08 09:13:22;;;;;;;2.05;0.30;;;;;;;19.40;33.06;101513.03;5107309;28;20023;-62
2023/10/08 09:15:48;;;;;;;0.70;0.40;;;;;;;19.38;33.30;101512.19;5107206;28;20039;-62
2023/10/08 09:18:14;;;;;;;0.35;0.35;;;;;;;19.03;30.71;101497.28;5088908;28;20035;-62
2023/10/08 09:20:43;;;;;;;0.32;0.30;;;;;;;18.23;30.07;101501.00;5107453;28;20016;-62
2023/10/08 09:23:11;;;;;;;0.30;0.30;;;;;;;17.55;30.89;101512.06;5107292;28;20046;-62
2023/10/08 09:25:38;;;;;;;17.67;0.70;;;;;;;17.43;31.26;101515.78;5107403;28;20026;-60
2023/10/08 09:28:07;;;;;;;0.30;0.30;;;;;;;17.55;30.55;101524.31;5106628;28;20411;-61
2023/10/08 09:30:39;;;;;;;0.28;0.28;;;;;;;17.34;30.56;101522.09;5107058;28;20028;-62
2023/10/08 09:33:06;;;;;;;0.30;0.30;;;;;;;16.97;30.38;101522.72;5107032;28;20077;-62
2023/10/08 09:35:33;;;;;;;0.50;0.50;;;;;;;17.44;31.82;101522.75;5106908;28;20468;-61
2023/10/08 09:38:00;;;;;;;0.50;0.43;;;;;;;17.98;31.77;101521.69;5107000;28;20051;-62
2023/10/08 09:40:25;;;;;;;0.28;0.28;;;;;;;18.59;31.72;101521.22;5106692;28;20044;-61
2023/10/08 09:42:52;;;;;;;0.50;0.30;;;;;;;19.20;31.17;101524.97;5106916;28;20035;-62
2023/10/08 09:45:18;;;;;;;0.50;0.40;;;;;;;19.85;31.30;101513.50;5106643;28;20035;-62
2023/10/08 09:47:54;;;;;;;0.40;0.40;;;;;;;20.52;30.49;101512.34;5106294;28;20035;-61
2023/10/08 09:50:27;;;;;;;0.40;0.38;;;;;;;21.37;30.47;101523.56;5105741;28;20024;-61
2023/10/08 09:53:06;;;;;;;0.30;0.30;;;;;;;22.22;29.84;101500.13;5106655;28;20409;-60
2023/10/08 09:55:31;;;;;;;0.47;0.30;;;;;;;21.65;26.99;101511.97;5089305;28;20028;-60
2023/10/08 09:57:57;;;;;;;1.10;0.47;;;;;;;20.99;26.45;101525.78;5106411;28;20032;-62
2023/10/08 10:00:32;;;;;;;0.17;0.17;;;;;;;20.51;25.95;101518.50;5106530;28;20031;-61
2023/10/08 10:03:01;;;;;;;1.30;0.35;;;;;;;19.97;25.69;101526.31;5106324;28;20020;-60
2023/10/08 10:05:30;;;;;;;0.20;0.20;;;;;;;19.28;27.10;101535.28;5106577;28;20027;-61
2023/10/08 10:07:56;;;;;;;0.32;0.30;;;;;;;19.22;26.53;101533.69;5106479;28;20024;-61
2023/10/08 10:10:27;;;;;;;0.88;0.40;;;;;;;18.82;26.51;101525.03;5106196;28;20035;-61
2023/10/08 10:12:52;;;;;;;0.55;0.38;;;;;;;18.48;27.40;101526.75;5106363;28;20031;-62
2023/10/08 10:15:21;;;;;;;0.30;0.30;;;;;;;18.40;28.37;101528.69;5106406;28;20024;-61
2023/10/08 10:17:47;;;;;;;0.32;0.30;;;;;;;18.79;29.24;101533.88;5106087;28;20024;-61
2023/10/08 10:20:16;;;;;;;1.48;0.75;;;;;;;19.10;27.77;101534.88;5106280;28;20016;-61
2023/10/08 10:22:43;;;;;;;0.30;0.30;;;;;;;18.74;27.88;101533.09;5106358;28;20027;-62
2023/10/08 10:25:16;;;;;;;2.20;0.45;;;;;;;18.49;28.17;101523.19;5106138;28;20028;-60
2023/10/08 10:27:55;;;;;;;0.38;0.38;;;;;;;18.32;27.23;101520.97;5106152;28;20049;-61
2023/10/08 10:30:23;;;;;;;0.25;0.25;;;;;;;18.16;28.82;101530.97;5106031;28;20044;-61
2023/10/08 10:32:51;;;;;;;0.38;0.38;;;;;;;18.52;27.08;101532.75;5105632;28;20024;-60
2023/10/08 10:35:20;;;;;;;0.60;0.38;;;;;;;18.55;28.80;101527.44;5106025;28;20035;-60
2023/10/08 10:37:54;;;;;;;0.20;0.20;;;;;;;19.37;27.98;101515.75;5105739;28;20028;-61
2023/10/08 10:40:29;;;;;;;0.40;0.40;;;;;;;19.12;27.12;101524.31;5105673;28;20047;-61
2023/10/08 10:43:00;;;;;;;0.40;0.40;;;;;;;18.58;27.80;101519.47;5106063;28;20032;-61
2023/10/08 10:45:42;;;;;;;0.93;0.28;;;;;;;18.68;26.93;101520.13;5105697;28;20083;-61
2023/10/08 10:48:13;;;;;;;;;;;;;;;18.73;27.50;101509.47;5105772;28;20035;-61
2023/10/08 10:51:07;;;;;;;0.60;0.50;;;;;;;18.96;27.40;101511.53;5105638;28;19947;-61
2023/10/08 10:53:44;;;;;;;0.45;0.38;;;;;;;19.75;28.23;101505.00;5105582;28;20024;-61
2023/10/08 10:56:18;;;;;;;0.63;0.40;;;;;;;20.39;26.12;101500.44;5105707;28;20016;-61
2023/10/08 10:58:45;;;;;;;0.57;0.43;;;;;;;20.05;25.35;101500.63;5105326;28;20547;-61
2023/10/08 11:01:44;;;;;;;0.30;0.30;;;;;;;19.75;25.62;101494.47;5105363;28;20028;-61
2023/10/08 11:04:00;;;;;;;0.68;0.45;;;;;;;19.84;25.24;101488.91;5104684;28;20035;-61
2023/10/08 11:06:26;;;;;;;0.40;0.40;;;;;;;19.85;25.04;101500.31;5105151;28;20052;-61
2023/10/08 11:08:52;;;;;;;0.82;0.40;;;;;;;20.12;24.00;101498.66;5105245;28;20028;-61
2023/10/08 11:11:28;;;;;;;0.50;0.40;;;;;;;20.14;25.32;101499.47;5105323;28;20089;-61
2023/10/08 11:14:00;;;;;;;0.60;0.40;;;;;;;20.66;25.74;101508.38;5105268;28;20031;-60
2023/10/08 11:16:26;;;;;;;0.40;0.40;;;;;;;19.65;23.54;101497.38;5104901;28;20019;-61
2023/10/08 11:18:57;;;;;;;5.32;0.50;;;;;;;17.26;24.76;101508.25;5105244;28;20050;-61
2023/10/08 11:21:24;;;;;;;1.13;0.37;;;;;;;15.51;27.01;101516.00;5105134;28;20020;-60
2023/10/08 11:23:55;;;;;;;0.30;0.30;;;;;;;14.49;28.57;101523.84;5105345;28;20248;-62
2023/10/08 11:26:31;;;;;;;0.30;0.30;;;;;;;13.63;29.27;101514.72;5105164;28;20262;-60
2023/10/08 11:29:00;;;;;;;0.98;0.43;;;;;;;12.82;29.67;101498.31;5104983;28;20028;-60
2023/10/08 11:31:27;;;;;;;0.50;0.50;;;;;;;12.24;30.70;101519.06;5104662;28;20031;-60
2023/10/08 11:33:59;;;;;;;0.38;0.32;;;;;;;12.00;31.57;101515.50;5105110;28;20081;-61
2023/10/08 11:36:33;;;;;;;0.77;0.68;;;;;;;11.85;32.08;101522.38;5105153;28;20378;-61
2023/10/08 11:39:11;;;;;;;0.40;0.40;;;;;;;11.74;32.91;101517.13;5104802;28;20471;-60
2023/10/08 11:41:51;;;;;;;0.30;0.30;;;;;;;11.69;33.08;101500.66;5104952;28;20531;-60
2023/10/08 11:44:23;;;;;;;0.40;0.40;;;;;;;11.74;33.10;101511.94;5104643;28;20060;-61
2023/10/08 11:46:51;;;;;;;0.30;0.30;;;;;;;11.62;33.20;101504.97;5104706;28;20084;-61
2023/10/08 11:49:17;;;;;;;0.32;0.32;;;;;;;11.60;33.48;101505.78;5104800;28;20108;-61
2023/10/08 11:51:45;;;;;;;0.30;0.30;;;;;;;11.51;33.63;101504.91;5105080;28;20027;-61
2023/10/08 11:54:11;;;;;;;0.60;0.60;;;;;;;11.42;33.86;101498.78;5104910;28;20024;-61
2023/10/08 11:56:38;;;;;;;0.40;0.40;;;;;;;11.39;33.78;101497.88;5104822;28;20031;-60
2023/10/08 11:59:11;;;;;;;0.82;0.40;;;;;;;11.36;34.33;101497.88;5104517;28;20055;-61
2023/10/08 12:01:42;;;;;;;0.73;0.50;;;;;;;11.37;34.31;101502.19;5104816;28;20020;-61
2023/10/08 12:04:12;;;;;;;0.50;0.50;;;;;;;11.37;34.72;101488.34;5104886;28;20020;-61
2023/10/08 12:06:52;;;;;;;0.52;0.40;;;;;;;11.35;34.63;101496.16;5104762;28;20035;-60
2023/10/08 12:09:21;;;;;;;0.40;0.40;;;;;;;11.30;34.39;101496.97;5104600;28;20031;-61
2023/10/08 12:11:51;;;;;;;0.30;0.30;;;;;;;11.30;35.00;101503.03;5104735;28;20464;-62
2023/10/08 12:14:16;;;;;;;0.40;0.40;;;;;;;11.26;35.05;101480.50;5106089;28;20024;-61
2023/10/08 12:16:42;;;;;;;0.30;0.30;;;;;;;11.29;35.37;101488.31;5108059;28;20118;-61
2023/10/08 12:19:16;;;;;;;0.50;0.50;;;;;;;11.35;35.53;101501.34;5108221;28;20024;-60
2023/10/08 12:21:42;;;;;;;0.40;0.40;;;;;;;11.33;35.59;101508.25;5108570;28;20412;-61
2023/10/08 12:24:12;;;;;;;0.60;0.50;;;;;;;11.26;35.50;101496.09;5108601;28;20027;-61
2023/10/08 12:26:42;;;;;;;0.65;0.40;;;;;;;11.36;35.89;101507.41;5090368;28;20024;-60
2023/10/08 12:29:08;;;;;;;0.47;0.47;;;;;;;11.33;35.78;101491.78;5108195;28;20404;-61
2023/10/08 12:31:33;;;;;;;0.50;0.50;;;;;;;11.31;35.58;101489.16;5108086;28;20083;-59
2023/10/08 12:34:00;;;;;;;8.60;0.55;;;;;;;11.27;35.75;101487.44;5108384;28;20032;-60
2023/10/08 12:36:27;;;;;;;0.40;0.40;;;;;;;11.23;35.78;101488.28;5108362;28;20035;-62
2023/10/08 12:38:57;;;;;;;0.32;0.32;;;;;;;11.17;35.82;101499.50;5107987;28;20057;-61
2023/10/08 12:41:24;;;;;;;0.65;0.43;;;;;;;11.08;35.76;101491.63;5107994;28;20052;-63
2023/10/08 12:43:52;;;;;;;0.50;0.50;;;;;;;11.10;35.76;101500.31;5089757;28;20043;-61
2023/10/08 12:46:18;;;;;;;0.68;0.50;;;;;;;11.03;36.07;101494.19;5107864;28;20024;-61